Terminal Aerodrome Forecast
Issued by NWS Charleston, WV

Home | Current Version | Previous Version | Text Only | Print | Product List | Glossary On
Versions: 1 2 3 4 5 6 7 8 9 10 11 12 13 14 15 16 17 18 19 20 21 22 23 24 25 26 27
448
FTUS41 KRLX 281741
TAFPKB
TAF
KPKB 281741Z 2818/2918 30006KT P6SM BKN020 OVC050
     FM290100 34006KT P6SM BKN012 OVC020
     FM291400 03005KT P6SM BKN025=

USA.gov is the U.S. government's official web portal to all federal, state and local government web resources and services.